createdAt,value
2022-09-12T00:01:14.728Z,3.78
2022-09-12T00:03:42.572Z,4.00
2022-09-12T00:06:22.381Z,3.85
2022-09-12T00:08:50.855Z,3.95
2022-09-12T00:11:18.708Z,3.90
2022-09-12T00:13:47.927Z,3.88
2022-09-12T00:16:21.854Z,3.80
2022-09-12T00:18:49.471Z,4.00
2022-09-12T00:21:19.151Z,4.07
2022-09-12T00:23:47.594Z,4.00
2022-09-12T00:26:17.447Z,4.30
2022-09-12T00:28:45.615Z,4.20
2022-09-12T00:31:16.022Z,3.72
2022-09-12T00:33:44.040Z,3.67
2022-09-12T00:36:15.572Z,3.97
2022-09-12T00:38:44.117Z,3.70
2022-09-12T00:41:15.857Z,3.90
2022-09-12T00:43:46.536Z,3.55
2022-09-12T00:46:28.267Z,4.38
2022-09-12T00:49:18.140Z,3.80
2022-09-12T00:51:55.867Z,3.80
2022-09-12T00:54:28.750Z,4.10
2022-09-12T00:57:01.085Z,3.78
2022-09-12T00:59:38.380Z,4.20
2022-09-12T01:02:07.539Z,3.78
2022-09-12T01:04:39.084Z,3.85
2022-09-12T01:07:08.276Z,4.00
2022-09-12T01:09:38.405Z,3.42
2022-09-12T01:12:06.880Z,3.75
2022-09-12T01:14:35.341Z,3.65
2022-09-12T01:17:02.738Z,3.80
2022-09-12T01:19:42.058Z,3.33
2022-09-12T01:22:49.480Z,3.35
2022-09-12T01:26:01.729Z,3.67
2022-09-12T01:28:59.663Z,3.30
2022-09-12T01:31:37.984Z,3.30
2022-09-12T01:34:29.757Z,3.50
2022-09-12T01:37:16.079Z,3.45
2022-09-12T01:39:49.160Z,3.30
2022-09-12T01:42:41.778Z,3.42
2022-09-12T01:45:47.556Z,3.47
2022-09-12T01:48:23.139Z,3.13
2022-09-12T01:51:02.689Z,3.10
2022-09-12T01:53:57.403Z,2.92
2022-09-12T01:56:32.046Z,2.97
2022-09-12T01:59:11.118Z,3.13
2022-09-12T02:01:49.037Z,2.90
2022-09-12T02:04:21.543Z,2.60
2022-09-12T02:06:54.957Z,2.80
2022-09-12T02:09:47.701Z,2.95
2022-09-12T02:12:19.349Z,3.00
2022-09-12T02:14:56.335Z,2.90
2022-09-12T02:17:26.517Z,3.20
2022-09-12T02:20:03.490Z,3.20
2022-09-12T02:22:32.410Z,3.20
2022-09-12T02:25:01.478Z,3.40
2022-09-12T02:27:38.337Z,3.07
2022-09-12T02:30:08.091Z,3.17
2022-09-12T02:32:49.861Z,3.22
2022-09-12T02:35:35.874Z,3.13
2022-09-12T02:38:12.612Z,3.10
2022-09-12T02:40:40.568Z,3.00
2022-09-12T02:43:08.208Z,3.35
2022-09-12T02:45:37.111Z,3.25
2022-09-12T02:48:17.977Z,3.25
2022-09-12T02:50:45.657Z,3.28
2022-09-12T02:53:13.158Z,3.00
2022-09-12T02:55:44.097Z,3.15
2022-09-12T02:58:18.950Z,3.30
2022-09-12T03:01:09.219Z,3.58
2022-09-12T03:03:43.633Z,3.13
2022-09-12T03:06:35.573Z,3.17
2022-09-12T03:09:14.757Z,3.10
2022-09-12T03:12:00.119Z,3.13
2022-09-12T03:15:08.141Z,3.20
2022-09-12T03:17:53.616Z,3.30
2022-09-12T03:20:33.076Z,3.30
2022-09-12T03:23:10.042Z,3.55
2022-09-12T03:25:43.745Z,3.22
2022-09-12T03:28:15.991Z,2.97
2022-09-12T03:30:48.606Z,3.35
2022-09-12T03:33:18.946Z,3.10
2022-09-12T03:35:47.844Z,3.92
2022-09-12T03:38:15.397Z,3.00
2022-09-12T03:40:43.334Z,2.90
2022-09-12T03:43:11.533Z,3.30
2022-09-12T03:45:39.420Z,3.20
2022-09-12T03:48:07.105Z,3.45
2022-09-12T03:50:34.717Z,3.47
2022-09-12T03:53:03.098Z,3.15
2022-09-12T03:55:31.215Z,3.20
2022-09-12T03:57:58.595Z,2.93
2022-09-12T04:00:26.184Z,3.20
2022-09-12T04:02:56.197Z,3.42
2022-09-12T04:05:24.458Z,3.50
2022-09-12T04:07:52.094Z,3.13
2022-09-12T04:10:19.446Z,3.27
2022-09-12T04:12:46.806Z,2.53
2022-09-12T04:15:14.441Z,3.35
2022-09-12T04:17:41.737Z,3.55
2022-09-12T04:20:09.457Z,3.38
2022-09-12T04:22:36.858Z,3.33
2022-09-12T04:25:04.646Z,3.20
2022-09-12T04:27:32.171Z,3.55
2022-09-12T04:30:00.735Z,3.13
2022-09-12T04:32:29.598Z,3.28
2022-09-12T04:34:57.328Z,3.13
2022-09-12T04:37:25.294Z,3.13
2022-09-12T04:39:58.021Z,3.10
2022-09-12T04:42:25.764Z,3.40
2022-09-12T04:44:53.108Z,3.72
2022-09-12T04:47:20.507Z,3.10
2022-09-12T04:49:50.100Z,3.00
2022-09-12T04:52:17.381Z,3.70
2022-09-12T04:54:44.776Z,3.58
2022-09-12T04:57:12.085Z,3.60
2022-09-12T04:59:39.732Z,3.33
2022-09-12T05:02:07.112Z,3.05
2022-09-12T05:04:35.119Z,3.47
2022-09-12T05:07:02.483Z,3.30
2022-09-12T05:09:29.775Z,3.40
2022-09-12T05:12:05.900Z,3.40
2022-09-12T05:14:34.713Z,3.80
2022-09-12T05:17:03.558Z,3.30
2022-09-12T05:19:32.042Z,3.42
2022-09-12T05:22:00.267Z,3.90
2022-09-12T05:24:28.060Z,3.60
2022-09-12T05:26:55.705Z,3.35
2022-09-12T05:29:23.397Z,3.50
2022-09-12T05:31:52.444Z,3.50
2022-09-12T05:34:20.730Z,3.30
2022-09-12T05:36:48.403Z,3.70
2022-09-12T05:39:16.162Z,3.50
2022-09-12T05:41:43.574Z,3.45
2022-09-12T05:44:14.363Z,3.10
2022-09-12T05:46:43.777Z,3.40
2022-09-12T05:49:13.370Z,3.53
2022-09-12T05:51:44.330Z,3.00
2022-09-12T05:54:13.823Z,3.28
2022-09-12T05:56:44.367Z,3.35
2022-09-12T05:59:22.154Z,3.17
2022-09-12T06:01:49.834Z,3.17
2022-09-12T06:04:17.902Z,3.35
2022-09-12T06:06:46.603Z,3.08
2022-09-12T06:09:17.441Z,3.35
2022-09-12T06:11:46.084Z,3.20
2022-09-12T06:14:16.065Z,3.10
2022-09-12T06:16:43.549Z,3.17
2022-09-12T06:19:19.157Z,2.95
2022-09-12T06:21:48.720Z,2.90
2022-09-12T06:24:20.243Z,3.00
2022-09-12T06:26:52.988Z,3.33
2022-09-12T06:29:20.813Z,2.90
2022-09-12T06:31:48.158Z,3.03
2022-09-12T06:34:16.900Z,2.90
2022-09-12T06:36:49.672Z,3.40
2022-09-12T06:39:19.554Z,3.53
2022-09-12T06:41:48.634Z,3.22
2022-09-12T06:44:21.696Z,3.00
2022-09-12T06:46:49.689Z,2.80
2022-09-12T06:49:18.014Z,3.10
2022-09-12T06:51:45.576Z,2.87
2022-09-12T06:54:16.470Z,2.65
2022-09-12T06:56:44.640Z,3.00
2022-09-12T06:59:12.297Z,3.08
2022-09-12T07:01:40.548Z,3.17
2022-09-12T07:04:07.965Z,2.87
2022-09-12T07:06:41.149Z,3.08
2022-09-12T07:09:11.699Z,2.90
2022-09-12T07:11:40.504Z,2.92
2022-09-12T07:14:10.324Z,4.15
2022-09-12T07:16:38.440Z,3.00
2022-09-12T07:19:07.803Z,2.80
2022-09-12T07:21:40.509Z,2.53
2022-09-12T07:24:11.164Z,2.80
2022-09-12T07:26:40.337Z,2.65
2022-09-12T07:29:35.409Z,2.33
2022-09-12T07:31:58.212Z,2.35
2022-09-12T07:34:26.557Z,2.63
2022-09-12T07:36:53.950Z,2.58
2022-09-12T07:39:21.364Z,2.40
2022-09-12T07:41:48.830Z,2.40
2022-09-12T07:44:16.154Z,2.60
2022-09-12T07:46:43.738Z,2.40
2022-09-12T07:49:12.779Z,2.30
2022-09-12T07:51:40.773Z,2.30
2022-09-12T07:54:09.578Z,2.27
2022-09-12T07:56:39.465Z,2.30
2022-09-12T07:59:08.382Z,2.40
2022-09-12T08:01:35.887Z,2.40
2022-09-12T08:04:05.258Z,2.30
2022-09-12T08:06:36.280Z,2.20
2022-09-12T08:09:05.964Z,2.33
2022-09-12T08:11:33.682Z,2.00
2022-09-12T08:14:03.233Z,2.00
2022-09-12T08:16:32.710Z,1.98
2022-09-12T08:19:04.645Z,1.90
2022-09-12T08:21:34.434Z,2.08
2022-09-12T08:24:05.066Z,1.80
2022-09-12T08:26:33.870Z,1.85
2022-09-12T08:29:01.500Z,1.70
2022-09-12T08:31:29.094Z,1.60
2022-09-12T08:33:57.844Z,1.70
2022-09-12T08:36:27.958Z,1.70
2022-09-12T08:38:59.959Z,1.80
2022-09-12T08:41:41.330Z,1.70
2022-09-12T08:44:29.525Z,1.80
2022-09-12T08:47:11.773Z,2.00
2022-09-12T08:49:48.886Z,2.13
2022-09-12T08:52:20.635Z,1.63
2022-09-12T08:54:48.143Z,2.10
2022-09-12T08:57:16.157Z,1.60
2022-09-12T08:59:48.670Z,1.73
2022-09-12T09:02:39.923Z,2.28
2022-09-12T09:05:44.274Z,1.75
2022-09-12T09:08:11.514Z,1.80
2022-09-12T09:10:49.508Z,1.47
2022-09-12T09:14:12.559Z,1.60
2022-09-12T09:16:43.138Z,1.58
2022-09-12T09:19:25.616Z,1.60
2022-09-12T09:22:12.506Z,1.50
2022-09-12T09:24:49.293Z,1.53
2022-09-12T09:27:42.105Z,1.67
2022-09-12T09:30:18.213Z,1.50
2022-09-12T09:32:51.317Z,1.40
2022-09-12T09:35:24.630Z,1.67
2022-09-12T09:38:06.327Z,1.80
2022-09-12T09:40:44.791Z,2.10
2022-09-12T09:43:12.037Z,1.70
2022-09-12T09:45:44.482Z,1.80
2022-09-12T09:48:35.599Z,1.95
2022-09-12T09:51:07.413Z,1.60
2022-09-12T09:53:42.155Z,1.67
2022-09-12T09:56:37.043Z,1.73
2022-09-12T09:59:12.346Z,1.80
2022-09-12T10:01:46.681Z,1.80
2022-09-12T10:04:20.349Z,1.87
2022-09-12T10:06:48.046Z,1.80
2022-09-12T10:09:15.575Z,1.85
2022-09-12T10:11:45.892Z,2.20
2022-09-12T10:14:36.994Z,2.22
2022-09-12T10:17:33.172Z,1.97
2022-09-12T10:20:21.400Z,2.00
2022-09-12T10:22:49.902Z,1.98
2022-09-12T10:25:20.744Z,1.60
2022-09-12T10:27:55.974Z,1.40
2022-09-12T10:30:28.508Z,1.80
2022-09-12T10:33:09.471Z,1.67
2022-09-12T10:35:48.379Z,1.67
2022-09-12T10:38:24.893Z,1.50
2022-09-12T10:41:00.218Z,1.45
2022-09-12T10:43:36.134Z,1.40
2022-09-12T10:46:18.372Z,1.40
2022-09-12T10:48:46.674Z,1.38
2022-09-12T10:51:25.669Z,1.63
2022-09-12T10:53:56.650Z,1.67
2022-09-12T10:56:30.183Z,1.80
2022-09-12T10:59:09.129Z,1.63
2022-09-12T11:02:10.244Z,1.45
2022-09-12T11:04:46.557Z,1.90
2022-09-12T11:07:48.602Z,2.03
2022-09-12T11:10:41.534Z,2.00
2022-09-12T11:13:17.130Z,2.20
2022-09-12T11:16:11.559Z,1.90
2022-09-12T11:19:12.369Z,2.13
2022-09-12T11:22:06.155Z,2.10
2022-09-12T11:25:06.480Z,2.00
2022-09-12T11:27:52.470Z,2.10
2022-09-12T11:30:20.160Z,2.00
2022-09-12T11:33:17.663Z,2.30
2022-09-12T11:35:55.529Z,2.40
2022-09-12T11:38:31.698Z,2.47
2022-09-12T11:41:04.390Z,2.53
2022-09-12T11:43:46.833Z,2.08
2022-09-12T11:46:36.875Z,2.30
2022-09-12T11:49:09.986Z,2.40
2022-09-12T11:51:55.819Z,2.40
2022-09-12T11:54:36.854Z,2.40
2022-09-12T11:57:21.774Z,2.50
2022-09-12T11:59:55.009Z,3.10
2022-09-12T12:02:25.421Z,2.72
2022-09-12T12:05:25.732Z,2.97
2022-09-12T12:07:59.019Z,2.97
2022-09-12T12:10:33.197Z,2.80
2022-09-12T12:13:03.586Z,3.20
2022-09-12T12:15:32.094Z,3.05
2022-09-12T12:18:06.452Z,3.20
2022-09-12T12:20:34.379Z,2.97
2022-09-12T12:23:01.844Z,3.00
2022-09-12T12:25:57.214Z,3.08
2022-09-12T12:28:42.926Z,2.92
2022-09-12T12:31:11.612Z,2.87
2022-09-12T12:33:39.015Z,2.85
2022-09-12T12:36:09.797Z,3.00
2022-09-12T12:38:41.117Z,3.20
2022-09-12T12:41:17.580Z,3.08
2022-09-12T12:43:49.925Z,2.73
2022-09-12T12:46:24.920Z,3.00
2022-09-12T12:49:22.046Z,2.92
2022-09-12T12:51:54.833Z,2.92
2022-09-12T12:54:40.239Z,2.80
2022-09-12T12:57:13.805Z,2.80
2022-09-12T13:00:30.094Z,2.70
2022-09-12T13:03:00.236Z,2.80
2022-09-12T13:05:31.897Z,2.95
2022-09-12T13:08:07.109Z,3.00
2022-09-12T13:10:35.001Z,3.07
2022-09-12T13:13:05.587Z,2.78
2022-09-12T13:15:36.120Z,3.10
2022-09-12T13:18:24.622Z,2.97
2022-09-12T13:21:30.193Z,3.67
2022-09-12T13:24:05.102Z,3.30
2022-09-12T13:26:44.200Z,3.10
2022-09-12T13:29:22.432Z,3.20
2022-09-12T13:31:57.318Z,3.20
2022-09-12T13:34:31.702Z,3.13
2022-09-12T13:37:49.682Z,3.23
2022-09-12T13:41:07.656Z,3.15
2022-09-12T13:43:42.582Z,2.97
2022-09-12T13:46:13.303Z,3.08
2022-09-12T13:48:41.266Z,3.53
2022-09-12T13:51:25.381Z,3.20
2022-09-12T13:53:56.648Z,3.30
2022-09-12T13:56:24.051Z,2.70
2022-09-12T13:59:02.829Z,3.17
2022-09-12T14:01:42.506Z,3.17
2022-09-12T14:04:41.935Z,3.57
2022-09-12T14:07:17.586Z,3.53
2022-09-12T14:09:55.704Z,3.20
2022-09-12T14:12:51.079Z,3.30
2022-09-12T14:15:26.800Z,3.50
2022-09-12T14:18:01.397Z,3.50
2022-09-12T14:20:37.609Z,3.75
2022-09-12T14:23:24.856Z,3.95
2022-09-12T14:25:52.690Z,3.42
2022-09-12T14:28:23.655Z,3.50
2022-09-12T14:31:15.934Z,3.40
2022-09-12T14:33:52.382Z,3.50
2022-09-12T14:36:26.966Z,3.58
2022-09-12T14:39:04.865Z,3.20
2022-09-12T14:41:36.874Z,3.30
2022-09-12T14:44:08.681Z,3.20
2022-09-12T14:46:39.009Z,3.70
2022-09-12T14:49:23.834Z,3.15
2022-09-12T14:51:51.626Z,3.00
2022-09-12T14:54:28.291Z,3.00
2022-09-12T14:56:58.018Z,2.97
2022-09-12T14:59:40.574Z,3.35
2022-09-12T15:02:14.552Z,3.15
2022-09-12T15:04:44.045Z,3.42
2022-09-12T15:07:29.770Z,3.40
2022-09-12T15:09:59.515Z,3.27
2022-09-12T15:12:28.293Z,3.30
2022-09-12T15:15:04.320Z,3.08
2022-09-12T15:17:31.595Z,3.03
2022-09-12T15:19:58.875Z,3.00
2022-09-12T15:22:26.436Z,3.30
2022-09-12T15:24:53.781Z,3.42
2022-09-12T15:27:21.182Z,3.50
2022-09-12T15:29:49.617Z,3.08
2022-09-12T15:32:24.687Z,3.33
2022-09-12T15:34:53.060Z,3.40
2022-09-12T15:37:22.190Z,3.42
2022-09-12T15:39:50.885Z,3.42
2022-09-12T15:42:23.723Z,3.60
2022-09-12T15:44:51.255Z,3.63
2022-09-12T15:47:18.547Z,3.50
2022-09-12T15:49:45.867Z,3.50
2022-09-12T15:52:16.402Z,3.55
2022-09-12T15:54:44.082Z,3.50
2022-09-12T15:57:11.488Z,3.40
2022-09-12T15:59:39.126Z,3.87
2022-09-12T16:02:07.217Z,3.47
2022-09-12T16:04:35.087Z,3.35
2022-09-12T16:07:02.515Z,3.35
2022-09-12T16:09:30.090Z,3.50
2022-09-12T16:11:57.894Z,3.63
2022-09-12T16:14:25.278Z,3.88
2022-09-12T16:16:54.479Z,3.17
2022-09-12T16:19:22.513Z,3.40
2022-09-12T16:21:50.006Z,3.63
2022-09-12T16:24:17.816Z,3.47
2022-09-12T16:26:45.201Z,3.58
2022-09-12T16:29:14.001Z,3.13
2022-09-12T16:31:41.566Z,3.63
2022-09-12T16:34:08.923Z,3.30
2022-09-12T16:36:36.335Z,3.13
2022-09-12T16:39:03.740Z,3.40
2022-09-12T16:41:32.243Z,3.75
2022-09-12T16:43:59.709Z,3.90
2022-09-12T16:46:31.742Z,3.33
2022-09-12T16:48:59.728Z,3.30
2022-09-12T16:51:31.686Z,2.92
2022-09-12T16:53:59.278Z,3.20
2022-09-12T16:56:26.660Z,3.15
2022-09-12T16:58:54.523Z,2.22
2022-09-12T17:01:26.725Z,2.40
2022-09-12T17:03:56.917Z,2.63
2022-09-12T17:06:25.744Z,2.25
2022-09-12T17:08:55.525Z,2.63
2022-09-12T17:11:25.738Z,2.00
2022-09-12T17:14:05.729Z,2.20
2022-09-12T17:16:36.335Z,1.70
2022-09-12T17:19:04.477Z,2.00
2022-09-12T17:21:32.930Z,1.80
2022-09-12T17:24:00.400Z,1.75
2022-09-12T17:26:27.879Z,1.60
2022-09-12T17:28:55.250Z,1.88
2022-09-12T17:31:22.767Z,1.92
2022-09-12T17:33:50.268Z,1.75
2022-09-12T17:36:18.465Z,2.08
2022-09-12T17:38:46.716Z,1.80
2022-09-12T17:41:20.179Z,1.90
2022-09-12T17:43:51.137Z,1.60
2022-09-12T17:46:19.913Z,1.65
2022-09-12T17:48:58.577Z,1.80
2022-09-12T17:51:30.962Z,1.90
2022-09-12T17:54:04.720Z,2.00
2022-09-12T17:56:34.981Z,1.90
2022-09-12T17:59:02.817Z,1.77
2022-09-12T18:01:49.137Z,2.42
2022-09-12T18:04:17.050Z,1.60
2022-09-12T18:06:50.695Z,1.50
2022-09-12T18:09:23.601Z,1.92
2022-09-12T18:11:52.141Z,1.48
2022-09-12T18:14:20.740Z,1.65
2022-09-12T18:16:48.661Z,1.43
2022-09-12T18:19:16.796Z,1.60
2022-09-12T18:21:44.269Z,1.60
2022-09-12T18:24:12.236Z,1.60
2022-09-12T18:26:39.868Z,1.55
2022-09-12T18:29:08.048Z,1.50
2022-09-12T18:31:35.960Z,1.60
2022-09-12T18:34:03.415Z,1.60
2022-09-12T18:36:31.239Z,1.30
2022-09-12T18:39:00.127Z,1.40
2022-09-12T18:41:29.188Z,1.73
2022-09-12T18:44:01.145Z,1.50
2022-09-12T18:46:30.351Z,1.35
2022-09-12T18:48:59.079Z,1.40
2022-09-12T18:51:32.159Z,1.20
2022-09-12T18:54:03.718Z,1.20
2022-09-12T18:56:33.323Z,1.40
2022-09-12T18:59:02.425Z,1.40
2022-09-12T19:01:35.354Z,1.20
2022-09-12T19:04:06.016Z,1.17
2022-09-12T19:06:36.310Z,1.40
2022-09-12T19:09:07.853Z,1.20
2022-09-12T19:11:37.745Z,1.30
2022-09-12T19:14:05.915Z,1.48
2022-09-12T19:16:33.473Z,1.30
2022-09-12T19:19:02.851Z,1.40
2022-09-12T19:21:31.704Z,1.10
2022-09-12T19:24:02.152Z,1.40
2022-09-12T19:26:29.818Z,1.50
2022-09-12T19:28:57.267Z,1.30
2022-09-12T19:31:25.276Z,1.60
2022-09-12T19:33:53.200Z,1.42
2022-09-12T19:36:43.856Z,1.55
2022-09-12T19:39:10.437Z,1.50
2022-09-12T19:41:37.797Z,1.58
2022-09-12T19:44:05.907Z,1.50
2022-09-12T19:46:33.272Z,1.40
2022-09-12T19:49:00.730Z,1.52
2022-09-12T19:51:28.065Z,1.60
2022-09-12T19:53:55.592Z,1.50
2022-09-12T19:56:23.177Z,1.70
2022-09-12T19:58:55.701Z,1.60
2022-09-12T20:01:28.683Z,1.70
2022-09-12T20:04:00.688Z,1.50
2022-09-12T20:06:28.542Z,1.70
2022-09-12T20:08:56.673Z,1.60
2022-09-12T20:11:24.853Z,1.45
2022-09-12T20:13:52.750Z,1.60
2022-09-12T20:16:23.444Z,1.80
2022-09-12T20:19:02.385Z,1.70
2022-09-12T20:21:32.263Z,1.50
2022-09-12T20:24:07.882Z,1.77
2022-09-12T20:26:35.494Z,1.73
2022-09-12T20:29:04.004Z,1.70
2022-09-12T20:31:32.311Z,1.60
2022-09-12T20:34:00.891Z,1.73
2022-09-12T20:36:28.526Z,1.60
2022-09-12T20:39:00.248Z,2.40
2022-09-12T20:41:30.782Z,1.70
2022-09-12T20:43:58.769Z,1.90
2022-09-12T20:46:27.810Z,1.80
2022-09-12T20:48:55.417Z,1.90
2022-09-12T20:51:26.815Z,1.70
2022-09-12T20:53:58.735Z,1.85
2022-09-12T20:56:27.534Z,1.70
2022-09-12T20:58:56.176Z,1.57
2022-09-12T21:01:24.715Z,1.90
2022-09-12T21:03:52.387Z,1.85
2022-09-12T21:06:20.818Z,2.20
2022-09-12T21:08:50.737Z,1.60
2022-09-12T21:11:19.601Z,1.50
2022-09-12T21:13:47.832Z,1.70
2022-09-12T21:16:17.921Z,1.80
2022-09-12T21:18:45.792Z,1.60
2022-09-12T21:21:15.307Z,1.73
2022-09-12T21:23:42.658Z,1.50
2022-09-12T21:26:10.163Z,1.60
2022-09-12T21:28:37.638Z,1.75
2022-09-12T21:31:05.547Z,1.63
2022-09-12T21:33:33.150Z,1.95
2022-09-12T21:36:05.534Z,1.77
2022-09-12T21:38:33.793Z,1.98
2022-09-12T21:41:09.703Z,1.73
2022-09-12T21:43:38.003Z,1.65
2022-09-12T21:46:07.944Z,1.75
2022-09-12T21:48:35.827Z,1.77
2022-09-12T21:51:03.919Z,1.60
2022-09-12T21:53:31.666Z,1.90
2022-09-12T21:56:07.418Z,1.92
2022-09-12T21:58:35.566Z,1.92
2022-09-12T22:01:03.275Z,1.90
2022-09-12T22:03:30.856Z,1.80
2022-09-12T22:06:02.404Z,1.70
2022-09-12T22:08:31.312Z,1.92
2022-09-12T22:11:04.841Z,2.10
2022-09-12T22:13:32.538Z,1.80
2022-09-12T22:16:01.356Z,1.80
2022-09-12T22:18:29.623Z,1.90
2022-09-12T22:21:08.370Z,2.00
2022-09-12T22:23:54.671Z,1.90
2022-09-12T22:26:22.345Z,2.17
2022-09-12T22:28:50.640Z,2.67
2022-09-12T22:31:18.422Z,2.47
2022-09-12T22:33:46.030Z,2.42
2022-09-12T22:36:13.717Z,2.60
2022-09-12T22:38:41.335Z,2.43
2022-09-12T22:41:11.638Z,2.70
2022-09-12T22:43:39.330Z,2.28
2022-09-12T22:46:12.549Z,2.53
2022-09-12T22:48:42.051Z,2.45
2022-09-12T22:51:10.121Z,2.47
2022-09-12T22:53:37.788Z,2.80
2022-09-12T22:56:06.142Z,2.55
2022-09-12T22:58:37.054Z,2.50
2022-09-12T23:01:08.072Z,2.58
2022-09-12T23:03:36.600Z,2.30
2022-09-12T23:06:05.375Z,2.17
2022-09-12T23:08:35.155Z,2.33
2022-09-12T23:11:10.233Z,2.45
2022-09-12T23:13:39.254Z,2.70
2022-09-12T23:16:08.350Z,2.57
2022-09-12T23:18:36.761Z,2.67
2022-09-12T23:21:07.157Z,2.42
2022-09-12T23:23:36.074Z,2.60
2022-09-12T23:26:08.124Z,2.33
2022-09-12T23:28:35.866Z,2.20
2022-09-12T23:31:04.187Z,2.30
2022-09-12T23:33:32.694Z,2.45
2022-09-12T23:36:02.017Z,2.47
2022-09-12T23:38:33.666Z,2.10
2022-09-12T23:41:02.284Z,2.37
2022-09-12T23:43:30.098Z,2.22
2022-09-12T23:45:58.389Z,1.90
2022-09-12T23:48:26.335Z,2.20
2022-09-12T23:50:54.573Z,2.30
2022-09-12T23:53:23.105Z,2.03
2022-09-12T23:55:50.878Z,1.92
2022-09-12T23:58:18.648Z,1.95
